createdAt,value
2019-01-26T00:40:54.551Z,11.24
2019-01-26T00:43:22.473Z,11.68
2019-01-26T00:45:51.910Z,10.56
2019-01-26T00:48:52.140Z,11.59
2019-01-26T01:14:15.961Z,11.71
2019-01-26T01:16:44.042Z,11.72
2019-01-26T01:19:12.200Z,10.84
2019-01-26T01:21:40.607Z,11.68
2019-01-26T01:24:08.736Z,11.26
2019-01-26T01:26:36.678Z,11.81
2019-01-26T01:29:04.574Z,11.80
2019-01-26T01:32:00.906Z,11.66
2019-01-26T01:34:35.469Z,11.64
2019-01-26T01:37:03.684Z,11.74
2019-01-26T01:39:31.672Z,11.65
2019-01-26T01:42:00.059Z,11.70
2019-01-26T01:44:28.201Z,11.71
2019-01-26T01:46:56.097Z,11.74
2019-01-26T01:49:23.941Z,11.71
2019-01-26T01:51:52.003Z,11.74
2019-01-26T01:54:45.787Z,11.41
2019-01-26T01:57:38.925Z,11.81
2019-01-26T01:59:59.423Z,11.90
2019-01-26T02:02:27.736Z,11.76
2019-01-26T02:04:56.157Z,11.73
2019-01-26T02:07:24.436Z,11.71
2019-01-26T02:10:07.243Z,11.88
2019-01-26T02:12:38.822Z,11.81
2019-01-26T02:15:07.056Z,11.83
2019-01-26T02:17:34.892Z,11.73
2019-01-26T02:20:02.667Z,11.80
2019-01-26T02:22:31.001Z,11.75
2019-01-26T02:24:58.834Z,11.77
2019-01-26T02:27:26.583Z,11.80
2019-01-26T02:29:54.909Z,11.84
2019-01-26T02:32:22.942Z,11.80
2019-01-26T02:34:51.024Z,11.88
2019-01-26T02:37:19.808Z,11.76
2019-01-26T02:39:48.109Z,11.82
2019-01-26T02:42:38.979Z,11.84
2019-01-26T02:45:09.708Z,11.88
2019-01-26T02:47:37.648Z,10.81
2019-01-26T02:50:06.819Z,11.85
2019-01-26T02:52:34.652Z,11.86
2019-01-26T02:55:02.443Z,11.79
2019-01-26T02:57:30.547Z,11.85
2019-01-26T02:59:59.053Z,11.87
2019-01-26T03:06:13.546Z,11.82
2019-01-26T03:08:53.969Z,11.82
2019-01-26T03:11:29.226Z,11.89
2019-01-26T03:13:57.382Z,11.88
2019-01-26T03:16:25.450Z,11.87
2019-01-26T03:18:54.037Z,11.84
2019-01-26T03:21:22.128Z,11.89
2019-01-26T03:23:50.581Z,11.88
2019-01-26T03:26:18.723Z,11.85
2019-01-26T03:28:46.830Z,11.88
2019-01-26T03:31:14.698Z,11.92
2019-01-26T03:33:42.552Z,11.84
2019-01-26T03:36:10.633Z,11.93
2019-01-26T03:39:04.710Z,11.86
2019-01-26T03:41:33.038Z,11.87
2019-01-26T03:44:01.580Z,11.90
2019-01-26T03:46:30.592Z,11.91
2019-01-26T03:48:58.831Z,11.95
2019-01-26T03:51:27.309Z,11.85
2019-01-26T03:53:55.674Z,11.91
2019-01-26T03:56:23.522Z,11.90
2019-01-26T03:58:51.447Z,11.94
2019-01-26T04:01:20.071Z,11.91
2019-01-26T04:06:47.274Z,11.91
2019-01-26T04:09:15.360Z,11.98
2019-01-26T04:19:00.780Z,11.99
2019-01-26T04:21:29.348Z,11.91
2019-01-26T04:23:57.694Z,10.66
2019-01-26T04:26:25.850Z,11.95
2019-01-26T04:28:53.886Z,11.93
2019-01-26T04:31:22.092Z,12.04
2019-01-26T04:34:14.787Z,11.99
2019-01-26T04:36:48.021Z,12.03
2019-01-26T04:39:16.961Z,11.51
2019-01-26T04:41:45.970Z,12.05
2019-01-26T04:44:14.197Z,12.06
2019-01-26T04:46:42.004Z,12.09
2019-01-26T04:49:10.106Z,12.05
2019-01-26T04:51:38.245Z,12.05
2019-01-26T04:54:46.661Z,12.08
2019-01-26T04:57:14.776Z,11.81
2019-01-26T04:59:43.248Z,12.06
2019-01-26T05:02:11.556Z,11.43
2019-01-26T05:04:39.589Z,12.06
2019-01-26T05:07:07.870Z,12.16
2019-01-26T05:09:36.754Z,12.11
2019-01-26T05:12:04.845Z,12.16
2019-01-26T05:14:52.782Z,12.15
2019-01-26T05:17:20.621Z,12.17
2019-01-26T05:19:48.701Z,12.20
2019-01-26T05:22:16.861Z,11.11
2019-01-26T05:24:44.986Z,12.24
2019-01-26T05:27:12.989Z,11.00
2019-01-26T05:29:40.797Z,12.18
2019-01-26T05:32:08.613Z,12.23
2019-01-26T05:34:36.470Z,12.26
2019-01-26T05:37:04.832Z,12.22
2019-01-26T05:39:33.272Z,12.27
2019-01-26T06:41:43.456Z,12.00
2019-01-26T06:44:12.141Z,12.47
2019-01-26T06:46:40.886Z,12.50
2019-01-26T06:49:09.442Z,12.49
2019-01-26T06:52:04.138Z,12.50
2019-01-26T06:54:32.005Z,12.58
2019-01-26T06:57:00.008Z,12.64
2019-01-26T06:59:28.017Z,12.61
2019-01-26T07:01:56.568Z,12.63
2019-01-26T07:04:42.466Z,12.62
2019-01-26T07:10:17.695Z,12.65
2019-01-26T07:12:45.848Z,12.70
2019-01-26T07:15:14.861Z,12.69
2019-01-26T07:17:42.931Z,12.70
2019-01-26T07:20:10.696Z,12.71
2019-01-26T07:22:38.763Z,12.74
2019-01-26T07:25:08.431Z,12.77
2019-01-26T07:27:52.416Z,12.77
2019-01-26T07:30:23.642Z,12.79
2019-01-26T07:32:52.010Z,12.46
2019-01-26T07:39:51.197Z,12.89
2019-01-26T07:42:18.919Z,12.52
2019-01-26T07:44:46.666Z,12.87
2019-01-26T07:47:14.415Z,13.02
2019-01-26T07:49:42.234Z,12.79
2019-01-26T07:52:10.184Z,13.02
2019-01-26T07:54:38.426Z,12.95
2019-01-26T07:57:06.222Z,13.04
2019-01-26T07:59:33.992Z,13.09
2019-01-26T08:02:01.798Z,13.05
2019-01-26T08:04:29.541Z,13.10
2019-01-26T08:06:57.264Z,13.07
2019-01-26T08:09:24.991Z,13.11
2019-01-26T08:11:52.758Z,13.10
2019-01-26T08:14:23.316Z,13.11
2019-01-26T08:17:00.303Z,13.11
2019-01-26T08:19:28.010Z,13.22
2019-01-26T08:21:58.804Z,13.25
2019-01-26T08:24:26.704Z,13.27
2019-01-26T08:26:54.515Z,13.30
2019-01-26T08:29:22.437Z,13.24
2019-01-26T08:31:50.271Z,13.28
2019-01-26T08:34:19.624Z,13.17
2019-01-26T08:36:47.546Z,13.14
2019-01-26T08:39:15.316Z,13.01
2019-01-26T08:41:43.308Z,13.10
2019-01-26T08:44:11.164Z,13.07
2019-01-26T08:46:38.974Z,13.08
2019-01-26T08:49:18.900Z,13.06
2019-01-26T08:51:48.047Z,13.11
2019-01-26T08:54:15.991Z,13.12
2019-01-26T08:56:43.878Z,13.16
2019-01-26T08:59:11.747Z,13.17
2019-01-26T09:01:39.576Z,13.15
2019-01-26T09:04:20.200Z,13.17
2019-01-26T09:09:44.775Z,13.03
2019-01-26T09:15:26.010Z,13.19
2019-01-26T09:18:23.656Z,13.26
2019-01-26T09:20:51.537Z,13.27
2019-01-26T09:23:42.402Z,13.28
2019-01-26T09:27:01.286Z,13.28
2019-01-26T09:29:08.333Z,13.27
2019-01-26T09:31:47.304Z,12.84
2019-01-26T09:35:38.000Z,13.34
2019-01-26T09:37:40.725Z,13.34
2019-01-26T09:40:13.707Z,13.00
2019-01-26T09:42:53.041Z,13.42
2019-01-26T09:48:07.332Z,13.41
2019-01-26T09:50:51.042Z,13.46
2019-01-26T09:53:24.357Z,13.42
2019-01-26T09:56:00.732Z,13.43
2019-01-26T09:58:55.832Z,13.47
2019-01-26T10:01:28.415Z,13.45
2019-01-26T10:03:56.888Z,13.47
2019-01-26T10:06:27.081Z,13.46
2019-01-26T10:08:55.152Z,13.46
2019-01-26T10:11:23.532Z,13.48
2019-01-26T10:13:51.962Z,13.46
2019-01-26T10:16:20.193Z,13.48
2019-01-26T10:18:53.624Z,13.48
2019-01-26T10:21:20.517Z,13.51
2019-01-26T10:24:00.833Z,13.51
2019-01-26T10:26:28.743Z,13.49
2019-01-26T10:28:56.827Z,13.53
2019-01-26T10:31:24.938Z,13.53
2019-01-26T10:34:15.829Z,13.35
2019-01-26T10:36:49.121Z,13.54
2019-01-26T10:39:39.404Z,13.53
2019-01-26T10:42:22.816Z,13.56
2019-01-26T10:44:50.673Z,13.54
2019-01-26T10:47:20.490Z,13.53
2019-01-26T10:49:59.589Z,13.54
2019-01-26T10:52:27.446Z,13.57
2019-01-26T10:55:12.630Z,13.56
2019-01-26T10:57:40.438Z,13.58
2019-01-26T11:00:13.784Z,13.59
2019-01-26T11:02:59.056Z,13.61
2019-01-26T11:05:17.151Z,13.63
2019-01-26T11:07:45.032Z,13.33
2019-01-26T11:10:12.870Z,13.62
2019-01-26T11:12:40.647Z,13.64
2019-01-26T11:15:11.806Z,13.66
2019-01-26T11:21:09.306Z,13.57
2019-01-26T11:23:37.299Z,13.70
2019-01-26T11:37:20.593Z,13.77
2019-01-26T11:39:54.307Z,13.81
2019-01-26T11:42:22.026Z,13.80
2019-01-26T11:45:31.058Z,13.81
2019-01-26T11:47:57.556Z,13.84
2019-01-26T11:53:26.412Z,13.88
2019-01-26T11:55:59.029Z,13.90
2019-01-26T11:58:47.516Z,13.91
2019-01-26T12:04:59.548Z,13.48
2019-01-26T12:07:38.641Z,13.98
2019-01-26T12:10:07.228Z,14.01
2019-01-26T12:12:44.124Z,13.01
2019-01-26T12:15:13.221Z,14.00
2019-01-26T12:17:59.268Z,13.97
2019-01-26T12:20:27.106Z,14.04
2019-01-26T12:22:55.120Z,14.04
2019-01-26T12:25:22.959Z,14.07
2019-01-26T12:27:57.372Z,14.06
2019-01-26T12:30:27.635Z,14.11
2019-01-26T12:32:58.102Z,14.14
2019-01-26T12:35:33.194Z,14.12
2019-01-26T12:38:19.305Z,14.14
2019-01-26T12:40:47.411Z,14.19
2019-01-26T12:43:32.041Z,14.21
2019-01-26T12:45:57.052Z,14.21
2019-01-26T12:51:30.493Z,14.22
2019-01-26T12:53:58.517Z,14.19
2019-01-26T12:56:27.765Z,14.22
2019-01-26T12:58:55.727Z,14.23
2019-01-26T13:01:23.624Z,14.27
2019-01-26T13:03:51.669Z,14.29
2019-01-26T13:06:19.403Z,13.74
2019-01-26T13:08:47.456Z,14.31
2019-01-26T13:11:17.870Z,14.29
2019-01-26T13:13:55.731Z,14.32
2019-01-26T13:16:41.748Z,14.38
2019-01-26T13:19:09.617Z,14.37
2019-01-26T13:21:37.417Z,14.40
2019-01-26T13:24:05.331Z,14.42
2019-01-26T13:26:33.507Z,14.41
2019-01-26T13:29:02.385Z,13.61
2019-01-26T13:31:31.367Z,13.77
2019-01-26T13:33:59.093Z,14.44
2019-01-26T13:36:26.855Z,14.42
2019-01-26T13:38:54.877Z,14.38
2019-01-26T13:41:22.751Z,14.46
2019-01-26T13:43:50.486Z,14.49
2019-01-26T13:46:29.039Z,14.55
2019-01-26T13:48:57.043Z,14.55
2019-01-26T13:51:24.764Z,14.49
2019-01-26T13:53:52.483Z,14.51
2019-01-26T13:56:20.187Z,14.54
2019-01-26T13:58:47.902Z,14.51
2019-01-26T14:01:15.694Z,14.47
2019-01-26T14:03:43.498Z,14.49
2019-01-26T14:06:11.320Z,14.51
2019-01-26T14:08:39.146Z,14.57
2019-01-26T14:11:06.946Z,14.53
2019-01-26T14:13:34.731Z,14.60
2019-01-26T14:16:02.474Z,14.61
2019-01-26T14:18:31.547Z,14.63
2019-01-26T14:20:59.354Z,14.63
2019-01-26T14:23:35.248Z,14.59
2019-01-26T14:26:01.218Z,14.62
2019-01-26T14:28:28.939Z,14.20
2019-01-26T14:30:58.052Z,13.73
2019-01-26T14:33:25.853Z,14.69
2019-01-26T14:35:53.685Z,14.46
2019-01-26T14:38:21.471Z,14.69
2019-01-26T14:40:49.261Z,14.70
2019-01-26T14:43:17.001Z,14.69
2019-01-26T14:45:44.862Z,14.68
2019-01-26T14:48:12.606Z,14.71
2019-01-26T14:50:40.338Z,14.75
2019-01-26T14:53:08.140Z,14.72
2019-01-26T14:55:35.901Z,14.72
2019-01-26T14:58:03.627Z,14.68
2019-01-26T15:00:31.682Z,14.67
2019-01-26T15:02:59.406Z,14.59
2019-01-26T15:05:36.514Z,14.76
2019-01-26T15:08:04.287Z,14.75
2019-01-26T15:10:32.092Z,14.73
2019-01-26T15:12:59.813Z,14.78
2019-01-26T15:15:27.578Z,14.74
2019-01-26T15:17:55.325Z,14.79
2019-01-26T15:20:24.506Z,14.80
2019-01-26T15:22:52.230Z,14.82
2019-01-26T15:25:20.181Z,14.80
2019-01-26T15:27:47.929Z,14.81
2019-01-26T15:30:17.145Z,14.83
2019-01-26T15:32:44.898Z,14.80
2019-01-26T15:35:12.616Z,14.82
2019-01-26T15:37:40.311Z,14.79
2019-01-26T15:40:08.434Z,14.81
2019-01-26T15:42:44.209Z,14.84
2019-01-26T15:45:12.794Z,14.77
2019-01-26T15:47:40.734Z,14.79
2019-01-26T15:50:13.098Z,14.78
2019-01-26T15:52:38.880Z,14.83
2019-01-26T15:55:07.851Z,14.87
2019-01-26T15:57:35.696Z,14.83
2019-01-26T16:00:04.319Z,14.87
2019-01-26T16:02:32.306Z,14.85
2019-01-26T16:05:00.351Z,14.90
2019-01-26T16:07:28.300Z,14.86
2019-01-26T16:09:56.218Z,14.90
2019-01-26T16:12:24.202Z,14.90
2019-01-26T16:14:52.389Z,14.90
2019-01-26T16:17:20.273Z,14.90
2019-01-26T16:19:48.315Z,14.91
2019-01-26T16:22:16.366Z,14.90
2019-01-26T16:24:44.288Z,14.91
2019-01-26T16:27:12.116Z,14.90
2019-01-26T16:29:40.058Z,14.93
2019-01-26T16:32:07.987Z,14.92
2019-01-26T16:34:35.942Z,14.91
2019-01-26T16:37:03.772Z,14.95
2019-01-26T16:39:31.986Z,14.95
2019-01-26T16:42:00.179Z,14.99
2019-01-26T16:44:28.153Z,14.97
2019-01-26T16:46:56.098Z,14.97
2019-01-26T16:49:24.077Z,14.95
2019-01-26T16:51:52.022Z,14.97
2019-01-26T16:54:20.478Z,15.02
2019-01-26T16:56:48.418Z,13.88
2019-01-26T16:59:16.166Z,15.00
2019-01-26T17:01:43.904Z,15.03
2019-01-26T17:04:11.795Z,15.05
2019-01-26T17:06:39.584Z,15.02
2019-01-26T17:09:08.868Z,15.04
2019-01-26T17:11:36.762Z,15.02
2019-01-26T17:14:04.512Z,15.07
2019-01-26T17:16:32.413Z,15.06
2019-01-26T17:19:00.274Z,15.01
2019-01-26T17:21:28.302Z,15.04
2019-01-26T17:23:56.081Z,15.02
2019-01-26T17:26:24.008Z,15.06
2019-01-26T17:28:51.860Z,15.10
2019-01-26T17:31:19.864Z,15.11
2019-01-26T17:33:47.620Z,15.11
2019-01-26T17:36:16.236Z,15.13
2019-01-26T17:38:43.997Z,15.15
2019-01-26T17:41:11.769Z,15.12
2019-01-26T17:43:39.723Z,15.17
2019-01-26T17:46:07.484Z,15.17
2019-01-26T17:48:35.237Z,15.16
2019-01-26T17:51:03.145Z,15.11
2019-01-26T17:53:31.424Z,15.09
2019-01-26T17:56:05.707Z,15.11
2019-01-26T17:58:33.486Z,15.17
2019-01-26T18:01:01.948Z,15.17
2019-01-26T18:03:30.657Z,15.18
2019-01-26T18:05:58.714Z,15.23
2019-01-26T18:08:26.512Z,15.13
2019-01-26T18:10:54.259Z,15.19
2019-01-26T18:13:22.002Z,15.17
2019-01-26T18:15:49.968Z,15.22
2019-01-26T18:18:17.709Z,15.10
2019-01-26T18:20:49.294Z,15.09
2019-01-26T18:23:16.577Z,15.08
2019-01-26T18:25:44.810Z,15.05
2019-01-26T18:28:13.113Z,15.07
2019-01-26T18:30:40.970Z,15.13
2019-01-26T18:33:08.829Z,15.08
2019-01-26T18:35:36.837Z,15.08
2019-01-26T18:38:05.597Z,15.06
2019-01-26T18:40:33.700Z,15.08
2019-01-26T18:43:01.704Z,15.11
2019-01-26T18:45:29.769Z,15.16
2019-01-26T18:47:57.527Z,15.11
2019-01-26T18:50:26.316Z,15.05
2019-01-26T18:52:54.326Z,15.02
2019-01-26T18:55:22.138Z,15.06
2019-01-26T18:57:49.990Z,15.07
2019-01-26T19:00:18.919Z,15.13
2019-01-26T19:02:47.507Z,15.18
2019-01-26T19:05:16.291Z,14.90
2019-01-26T19:07:44.099Z,15.11
2019-01-26T19:10:12.341Z,15.14
2019-01-26T19:12:40.084Z,15.10
2019-01-26T19:15:09.356Z,15.12
2019-01-26T19:17:37.187Z,15.14
2019-01-26T19:20:05.457Z,15.11
2019-01-26T19:22:33.284Z,14.20
2019-01-26T19:25:01.020Z,15.08
2019-01-26T19:27:28.867Z,15.04
2019-01-26T19:29:56.614Z,15.08
2019-01-26T19:32:24.607Z,15.12
2019-01-26T19:34:52.668Z,15.12
2019-01-26T19:37:20.433Z,15.14
2019-01-26T19:39:48.261Z,15.14
2019-01-26T19:42:15.997Z,15.11
2019-01-26T19:44:44.165Z,15.04
2019-01-26T19:47:11.940Z,15.11
2019-01-26T19:49:41.593Z,15.11
2019-01-26T19:52:09.428Z,15.04
2019-01-26T19:54:37.155Z,15.03
2019-01-26T19:57:04.926Z,15.09
2019-01-26T19:59:32.669Z,15.04
2019-01-26T20:02:00.399Z,15.04
2019-01-26T20:04:28.396Z,15.07
2019-01-26T20:06:56.238Z,15.04
2019-01-26T20:09:23.985Z,15.00
2019-01-26T20:11:51.782Z,15.04
2019-01-26T20:14:19.635Z,15.09
2019-01-26T20:16:47.496Z,15.11
2019-01-26T20:19:15.347Z,15.15
2019-01-26T20:21:43.112Z,14.84
2019-01-26T20:24:11.169Z,15.10
2019-01-26T20:26:38.961Z,15.15
2019-01-26T20:29:06.716Z,15.15
2019-01-26T20:31:34.450Z,13.82
2019-01-26T20:34:02.218Z,15.07
2019-01-26T20:36:29.957Z,15.06
2019-01-26T20:38:57.691Z,15.13
2019-01-26T20:41:25.454Z,15.07
2019-01-26T20:43:53.198Z,15.14
2019-01-26T20:46:21.088Z,15.14
2019-01-26T20:48:48.908Z,15.11
2019-01-26T20:51:16.672Z,14.88
2019-01-26T20:53:44.484Z,15.09
2019-01-26T20:56:12.394Z,15.06
2019-01-26T20:58:40.191Z,15.12
2019-01-26T21:01:08.090Z,15.13
2019-01-26T21:03:36.094Z,15.11
2019-01-26T21:06:03.941Z,15.09
2019-01-26T21:08:32.021Z,15.06
2019-01-26T21:10:59.856Z,15.11
2019-01-26T21:13:27.599Z,15.14
2019-01-26T21:15:55.383Z,15.07
2019-01-26T21:18:23.118Z,15.11
2019-01-26T21:20:50.860Z,15.10
2019-01-26T21:23:18.613Z,14.95
2019-01-26T21:25:46.540Z,15.11
2019-01-26T21:28:14.601Z,15.09
2019-01-26T21:30:42.409Z,15.10
2019-01-26T21:33:10.154Z,15.10
2019-01-26T21:35:37.892Z,15.09
2019-01-26T21:38:05.732Z,15.13
2019-01-26T21:40:33.484Z,15.08
2019-01-26T21:43:01.496Z,14.74
2019-01-26T21:45:29.401Z,15.08
2019-01-26T21:47:57.146Z,15.17
2019-01-26T21:50:25.828Z,15.11
2019-01-26T21:52:53.691Z,15.23
2019-01-26T21:55:21.516Z,15.15
2019-01-26T21:57:49.316Z,15.17
2019-01-26T22:00:18.610Z,15.18
2019-01-26T22:02:46.521Z,15.19
2019-01-26T22:05:14.359Z,15.17
2019-01-26T22:07:42.862Z,15.09
2019-01-26T22:10:11.603Z,15.17
2019-01-26T22:12:39.550Z,15.19
2019-01-26T22:15:08.273Z,15.22
2019-01-26T22:17:36.404Z,15.20
2019-01-26T22:20:05.112Z,15.24
2019-01-26T22:22:33.196Z,15.20
2019-01-26T22:25:01.114Z,15.17
2019-01-26T22:27:29.002Z,15.14
2019-01-26T22:29:56.741Z,15.14
2019-01-26T22:32:24.604Z,15.08
2019-01-26T22:34:52.349Z,15.15
2019-01-26T22:37:20.168Z,15.08
2019-01-26T22:39:47.999Z,15.21
2019-01-26T22:42:15.736Z,15.08
2019-01-26T22:44:43.640Z,15.15
2019-01-26T22:47:11.456Z,15.18
2019-01-26T22:49:39.448Z,15.17
2019-01-26T22:52:07.452Z,15.26
2019-01-26T22:54:35.192Z,15.28
2019-01-26T22:57:02.949Z,15.22
2019-01-26T22:59:31.036Z,15.17
2019-01-26T23:01:58.797Z,15.22
2019-01-26T23:04:48.652Z,15.05
2019-01-26T23:07:21.217Z,14.67
2019-01-26T23:09:53.992Z,15.01
2019-01-26T23:12:50.235Z,15.21
2019-01-26T23:15:36.163Z,15.17
2019-01-26T23:18:19.017Z,15.23
2019-01-26T23:20:54.907Z,15.26
2019-01-26T23:23:42.273Z,15.25
2019-01-26T23:26:25.903Z,15.27
2019-01-26T23:29:28.037Z,15.21
2019-01-26T23:31:55.767Z,15.24
2019-01-26T23:34:23.512Z,15.19
2019-01-26T23:36:51.248Z,15.29
2019-01-26T23:39:18.995Z,15.21
2019-01-26T23:41:46.740Z,15.18
2019-01-26T23:44:14.504Z,14.62
2019-01-26T23:46:42.246Z,15.09
2019-01-26T23:49:09.990Z,15.08
2019-01-26T23:51:37.741Z,15.19
2019-01-26T23:54:05.609Z,15.14
2019-01-26T23:56:33.372Z,15.16
2019-01-26T23:59:01.209Z,15.08
